Chatelet, Belgium
Current Conditions -  °F | °C
As of 8:20 PM on Saturday 20 Dec 2014 (Local Time) from EBCI Reporting Station
Rain Showers Rain Showers  
Wind Chill: 37°   Ceiling: 4500
Heat Index: 43°   Visibility: 6mi
Dew Point: 37°   Wind: 10mph
Humidity: 81%   Direction: 270°W
Pressure: 30.36"   Gusts: NA
Location:  50.4°N, 4.53°E
Report Text: EBCI 201920Z 27009KT 230V300 9999 -SHRA FEW012 SCT025 BKN045 06/03 Q1028 NOSIG
Loading
Personal Weather Stations






























Interactive Weather Map New forecast layout! Learn more

10-Day Weather Forecast

Advertisements
Track Severe Weather on mobile